Flight Track Log - Related Links

Times and Time Zones

All times are in EDT time to prevent confusion due to time zone crossing. See the CTL13 flight status page for this flight to view local times or setup timezone preferences in your user account.

Time Position Orientation Groundspeed Altitude Reporting Facility
EDT Latitude Longitude Course Direction KTS MPH feet Rate Location/Type
Mon 06:39:10 PM 41.5356 -81.6817 339° North 126 145 1,200  Level Cleveland Center
Mon 06:39:40 PM 41.5522 -81.6903 339° North 128 147 1,800 1,187 Climbing Cleveland Center
Mon 06:40:41 PM 41.5856 -81.7103 336° Northwest 137 158 3,000 1,218 Climbing Cleveland Center
Mon 06:41:53 PM 41.6164 -81.7358 328° Northwest 109 125 4,500 1,036 Climbing Cleveland Center
Mon 06:43:00 PM 41.6306 -81.7806 293° West 120 138 5,400 836 Climbing Cleveland Center
Mon 06:43:55 PM 41.6364 -81.8222 281° West 127 146 6,200 843 Climbing Cleveland Center
Mon 06:45:01 PM 41.6317 -81.8694 262° West 126 145 7,100 709 Climbing Cleveland Center
Mon 06:46:02 PM 41.6103 -81.9161 239° Southwest 142 163 7,700 422 Climbing Cleveland Center
Mon 06:47:09 PM 41.5869 -81.9656 238° Southwest 148 170 8,000 149 Climbing Cleveland Center
Mon 06:48:03 PM 41.5653 -82.0153 240° Southwest 163 188 8,000  Level Cleveland Center
Mon 06:48:58 PM 41.5481 -82.0619 244° Southwest 163 188 8,000 -55 Level Cleveland Center
Mon 06:49:52 PM 41.5267 -82.1086 239° Southwest 153 176 7,900 -52 Descending Cleveland Center
Mon 06:50:53 PM 41.5050 -82.1581 240° Southwest 154 177 7,900  Level Cleveland Center
Mon 06:52:00 PM 41.4814 -82.2100 239° Southwest 154 177 7,900  Level Cleveland Center
Mon 06:53:00 PM 41.4642 -82.2594 245° Southwest 156 180 7,900  Level Cleveland Center
Mon 06:54:01 PM 41.4403 -82.3117 239° Southwest 159 183 7,900  Level Cleveland Center
Mon 06:54:55 PM 41.4189 -82.3581 238° Southwest 158 182 7,900 52 Level Cleveland Center
Mon 06:55:56 PM 41.3972 -82.4100 241° Southwest 157 181 8,000 Climbing Cleveland Center
Mon 06:57:00 PM 41.3669 -82.4564 229° Southwest  Level FlightAware Approximate
Mon 07:04:00 PM 41.1970 -82.7918 238° Southwest  Level FlightAware Approximate
Mon 07:05:00 PM 41.1743 -82.8408 238° Southwest  Level FlightAware Approximate
Mon 07:06:00 PM 41.1515 -82.8896 238° Southwest  Level FlightAware Approximate
Mon 07:07:00 PM 41.1288 -82.9385 238° Southwest  Level FlightAware Approximate
Mon 07:08:00 PM 41.1059 -82.9873 238° Southwest  Level FlightAware Approximate
Mon 07:08:26 PM 41.1194 -83.0339 238° Southwest 159 183 8,000  Level Indianapolis Center
Mon 07:09:00 PM 41.0835 -83.0364 239° Southwest  Level FlightAware Approximate
Mon 07:09:28 PM 41.0994 -83.0858 243° Southwest 158 182 8,000  Level Indianapolis Center
Mon 07:10:00 PM 41.0612 -83.0855 239° Southwest  Level FlightAware Approximate
Mon 07:10:30 PM 41.0756 -83.1367 238° Southwest 159 183 8,000  Level Indianapolis Center
Mon 07:11:00 PM 41.0388 -83.1347 239° Southwest  Level FlightAware Approximate
Mon 07:11:32 PM 41.0489 -83.1967 240° Southwest 160 184 8,000  Level Indianapolis Center
Mon 07:12:00 PM 41.0165 -83.1837 238° Southwest  Level FlightAware Approximate
Mon 07:12:34 PM 41.0283 -83.2486 242° Southwest 159 183 8,000  Level Indianapolis Center
Mon 07:13:00 PM 40.9936 -83.2324 238° Southwest  Level FlightAware Approximate
Mon 07:13:35 PM 41.0067 -83.3011 241° Southwest 160 184 8,000  Level Indianapolis Center
Mon 07:14:37 PM 40.9828 -83.3528 239° Southwest 161 185 8,000  Level Indianapolis Center
Mon 07:15:39 PM 40.9592 -83.4044 239° Southwest 162 186 8,000  Level Indianapolis Center
Mon 07:16:41 PM 40.9358 -83.4569 240° Southwest 164 189 8,000 49 Level Indianapolis Center
Mon 07:17:42 PM 40.9117 -83.5094 239° Southwest 164 189 8,100 49 Climbing Indianapolis Center
Mon 07:18:44 PM 40.8900 -83.5636 242° Southwest 165 190 8,100 -48 Level Indianapolis Center
Mon 07:19:46 PM 40.8683 -83.6175 242° Southwest 165 190 8,000 -48 Descending Indianapolis Center
Mon 07:20:48 PM 40.8392 -83.6792 238° Southwest 167 192 8,000  Level Indianapolis Center
Mon 07:21:49 PM 40.8164 -83.7331 241° Southwest 167 192 8,000  Level Indianapolis Center
Mon 07:22:51 PM 40.7906 -83.7853 237° Southwest 168 193 8,000  Level Indianapolis Center
Mon 07:23:53 PM 40.7644 -83.8378 237° Southwest 169 194 8,000  Level Indianapolis Center
Mon 07:24:54 PM 40.7411 -83.8906 240° Southwest 168 193 8,000  Level Indianapolis Center
Mon 07:25:56 PM 40.7178 -83.9439 240° Southwest 167 192 8,000 51 Level Indianapolis Center
Mon 07:26:52 PM 40.6928 -83.9992 239° Southwest 164 189 8,100 51 Climbing Indianapolis Center
Mon 07:27:53 PM 40.6739 -84.0544 246° West 165 190 8,100  Level Indianapolis Center
Mon 07:28:48 PM 40.6556 -84.1044 244° Southwest 165 190 8,100  Level Indianapolis Center
Mon 07:29:49 PM 40.6364 -84.1594 245° Southwest 165 190 8,100  Level Indianapolis Center
Mon 07:30:50 PM 40.6178 -84.2119 245° Southwest 164 189 8,100 -79 Level Indianapolis Center
Mon 07:31:05 PM 40.6133 -84.2258 247° West 164 189 8,000 -158 Descending Indianapolis Center
Mon 07:32:06 PM 40.5936 -84.2803 245° Southwest 164 189 7,900  Descending Indianapolis Center
Mon 07:32:51 PM 40.5753 -84.3244 241° Southwest 165 190 8,000  Climbing Indianapolis Center
Mon 07:33:08 PM 40.5717 -84.3347 245° Southwest 165 190 7,900  Descending Indianapolis Center
Mon 07:33:52 PM 40.5542 -84.3794 243° Southwest 164 189 8,000  Climbing Indianapolis Center
Mon 07:34:10 PM 40.5517 -84.3903 253° West 166 191 7,900  Descending Indianapolis Center
Mon 07:34:53 PM 40.5353 -84.4344 244° Southwest 165 190 8,000  Climbing Indianapolis Center
Mon 07:35:12 PM 40.5314 -84.4450 244° Southwest 165 190 7,900  Descending Indianapolis Center
Mon 07:35:54 PM 40.5139 -84.4892 242° Southwest 167 192 8,000  Climbing Indianapolis Center
Mon 07:36:13 PM 40.5108 -84.4997 249° West 166 191 7,900  Descending Indianapolis Center
Mon 07:36:48 PM 40.4978 -84.5364 245° Southwest 165 190 8,000  Climbing Indianapolis Center
Mon 07:37:15 PM 40.4911 -84.5556 245° Southwest 167 192 7,900  Descending Indianapolis Center
Mon 07:38:13 PM 40.4644 -84.6086 237° Southwest 165 190 8,000 63 Climbing Indianapolis Center
Mon 07:38:50 PM 40.4433 -84.6358 224° Southwest 170 196 8,000 -91 Level Indianapolis Center
Mon 07:39:19 PM 40.4283 -84.6561 226° Southwest 165 190 7,900  Descending Indianapolis Center
Mon 07:39:51 PM 40.4083 -84.6803 223° Southwest 167 192 8,000  Climbing Indianapolis Center
Mon 07:40:20 PM 40.3950 -84.7000 228° Southwest 167 192 7,900  Descending Indianapolis Center
Mon 07:40:52 PM 40.3753 -84.7250 224° Southwest 168 193 8,000  Climbing Indianapolis Center
Mon 07:41:22 PM 40.3614 -84.7439 226° Southwest 168 193 7,900  Descending Indianapolis Center
Mon 07:41:52 PM 40.3425 -84.7669 223° Southwest 167 192 8,000  Climbing Indianapolis Center
Mon 07:42:24 PM 40.3283 -84.7872 228° Southwest 168 193 7,900 98 Descending Indianapolis Center
Mon 07:42:53 PM 40.3114 -84.8117 228° Southwest 169 194 8,100  Climbing Indianapolis Center
Mon 07:43:25 PM 40.2981 -84.8339 232° Southwest 168 193 7,900  Descending Indianapolis Center
Mon 07:43:42 PM 40.2853 -84.8492 222° Southwest 168 193 8,100 97 Climbing Indianapolis Center
Mon 07:44:27 PM 40.2672 -84.8797 232° Southwest 167 192 8,000  Descending Indianapolis Center
Mon 07:44:54 PM 40.2511 -84.9044 230° Southwest 167 192 8,100  Climbing Indianapolis Center
Mon 07:45:29 PM 40.2369 -84.9258 229° Southwest 166 191 8,000  Descending Indianapolis Center
Mon 07:46:01 PM 40.2153 -84.9567 227° Southwest 167 192 8,100  Climbing Indianapolis Center
Mon 07:46:31 PM 40.2006 -84.9778 228° Southwest 166 191 8,000  Descending Indianapolis Center
Mon 07:47:02 PM 40.1842 -85.0014 228° Southwest 166 191 8,100  Climbing Indianapolis Center
Mon 07:47:32 PM 40.1692 -85.0242 229° Southwest 167 192 8,000 -65 Descending Indianapolis Center
Mon 07:48:34 PM 40.1378 -85.0683 227° Southwest 166 191 8,000 48 Level Indianapolis Center
Mon 07:49:36 PM 40.1081 -85.1125 229° Southwest 163 188 8,100  Climbing Indianapolis Center
Mon 07:50:37 PM 40.0781 -85.1586 230° Southwest 165 190 8,000 -49 Descending Indianapolis Center
Mon 07:51:39 PM 40.0483 -85.2053 230° Southwest 167 192 8,000 -194 Level Indianapolis Center
Mon 07:52:41 PM 40.0411 -85.2669 261° West 168 193 7,600 -537 Descending Indianapolis Center
Mon 07:53:42 PM 40.0275 -85.3303 254° West 178 205 6,900 -634 Descending Indianapolis Center
Mon 07:54:44 PM 40.0133 -85.3961 254° West 185 213 6,300 -677 Descending Indianapolis Center
Mon 07:55:46 PM 39.9981 -85.4694 255° West 181 208 5,500 -634 Descending Indianapolis Center
Mon 07:56:47 PM 39.9856 -85.5303 255° West 176 203 5,000 -244 Descending Indianapolis Center
Mon 07:57:49 PM 39.9739 -85.5914 256° West 174 200 5,000  Level Indianapolis Center
Mon 07:58:50 PM 39.9614 -85.6486 254° West 168 193 5,000  Level Indianapolis Center
Mon 07:59:52 PM 39.9503 -85.7056 256° West 165 190 5,000  Level Indianapolis Center
Mon 08:00:54 PM 39.9378 -85.7628 254° West 163 188 5,000  Level Indianapolis Center
Mon 08:01:55 PM 39.9258 -85.8186 254° West 161 185 5,000 -293 Level Indianapolis Center
Mon 08:02:57 PM 39.9128 -85.8775 254° West 164 189 4,400 -683 Descending Indianapolis Center
Mon 08:03:58 PM 39.8994 -85.9397 254° West 172 198 3,600 -634 Descending Indianapolis Center
Mon 08:05:00 PM 39.8856 -86.0136 256° West 174 200 3,100 -484 Descending Indianapolis Center

Login

Don't have an account? Register now (free) for customized features, flight alerts, and more!